Flight Track Log - Related Links

Times and Time Zones

All times are in EDT time to prevent confusion due to time zone crossing. See the UCA596 flight status page for this flight to view local times or setup timezone preferences in your user account.

Time Position Orientation Groundspeed Altitude Reporting Facility
EDT Latitude Longitude Course Direction KTS MPH feet Rate Location/Type
Wed 01:07:16 PM 38.9667 -77.5333 North 163 188 2,600  Level Potomac TRACON
Wed 01:08:10 PM 39.0167 -77.5500 345° North 181 208 3,900 1,300 Climbing Potomac TRACON
Wed 01:09:16 PM 39.0667 -77.5500 360° North 191 220 5,200 1,300 Climbing Potomac TRACON
Wed 01:10:10 PM 39.1167 -77.5333 14° North 198 228 6,500 1,389 Climbing Potomac TRACON
Wed 01:11:04 PM 39.1667 -77.5333 360° North 194 223 7,700 1,297 Climbing Potomac TRACON
Wed 01:12:00 PM 39.3037 -77.3054 North  Level Estimated
Wed 01:12:38 PM 39.2419 -77.5183 North 190 219 9,700  Level Washington Center
Wed 01:13:39 PM 39.2919 -77.5117 North 190 219 11,000 793 Climbing Washington Center
Wed 01:14:39 PM 39.3506 -77.5025 North 190 219 11,300 4,068 Climbing Washington Center
Wed 01:15:37 PM 39.4050 -77.4906 10° North 190 219 19,000 1,576 Climbing Washington Center
Wed 01:16:37 PM 39.4486 -77.4864 North 181 208 14,400 -1,587 Descending Washington Center
Wed 01:17:38 PM 39.4967 -77.4794 North 181 208 15,800 1,295 Climbing Washington Center
Wed 01:19:33 PM 39.5861 -77.4603 North 172 198 18,200 1,097 Climbing New York Center
Wed 01:20:33 PM 39.6383 -77.4544 North 167 192 19,000 400 Climbing New York Center
Wed 01:21:33 PM 39.6928 -77.4514 North 187 215 19,000  Level New York Center
Wed 01:22:33 PM 39.7658 -77.4531 359° North 224 258 19,000  Level New York Center
Wed 01:23:33 PM 39.8267 -77.4453 North 237 273 19,000  Level New York Center
Wed 01:24:33 PM 39.9000 -77.4036 24° Northeast 242 278 19,000  Level New York Center
Wed 01:25:33 PM 39.9600 -77.3714 22° Northeast 259 298 19,000  Level New York Center
Wed 01:26:33 PM 40.0353 -77.3322 22° Northeast 259 298 19,000  Level New York Center
Wed 01:27:34 PM 40.0956 -77.2972 24° Northeast 259 298 19,000  Level New York Center
Wed 01:28:33 PM 40.1708 -77.2581 22° Northeast 259 298 19,000  Level New York Center
Wed 01:29:33 PM 40.2308 -77.2256 22° Northeast 259 298 19,000  Level New York Center
Wed 01:30:34 PM 40.3042 -77.1836 24° Northeast 259 298 19,000  Level New York Center
Wed 01:31:33 PM 40.3642 -77.1508 23° Northeast 259 298 19,000  Level New York Center
Wed 01:32:33 PM 40.4392 -77.1114 22° Northeast 259 298 19,000  Level New York Center
Wed 01:33:33 PM 40.4994 -77.0789 22° Northeast 259 298 19,000 -500 Level New York Center
Wed 01:34:33 PM 40.5747 -77.0364 23° Northeast 259 298 18,000 -500 Descending New York Center
Wed 01:35:33 PM 40.6325 -77.0033 23° Northeast 259 298 18,000  Level New York Center
Wed 01:36:33 PM 40.7078 -76.9636 22° Northeast 259 298 18,000 -50 Level New York Center
Wed 01:37:33 PM 40.7656 -76.9306 23° Northeast 259 298 17,900 -500 Descending New York Center
Wed 01:38:33 PM 40.8386 -76.8878 24° Northeast 264 304 17,000 -450 Descending New York Center
Wed 01:39:33 PM 40.8967 -76.8572 22° Northeast 259 298 17,000  Level New York Center
Wed 01:40:33 PM 40.9589 -76.8217 23° Northeast 259 298 17,000  Level New York Center
Wed 01:41:33 PM 41.0253 -76.7864 22° Northeast 254 292 17,000  Level New York Center
Wed 01:42:33 PM 41.0897 -76.7481 24° Northeast 254 292 17,000  Level New York Center
Wed 01:43:33 PM 41.1558 -76.7153 20° North 254 292 17,000  Level New York Center
Wed 01:44:33 PM 41.2183 -76.6764 25° Northeast 254 292 17,000  Level New York Center
Wed 01:45:33 PM 41.2825 -76.6408 23° Northeast 254 292 17,000  Level New York Center
Wed 01:47:33 PM 41.4153 -76.5667 23° Northeast 244 281 17,000  Level New York Center
Wed 01:48:33 PM 41.4797 -76.5306 23° Northeast 244 281 17,000  Level New York Center
Wed 01:49:33 PM 41.5375 -76.4939 25° Northeast 244 281 17,000 -100 Level New York Center
Wed 01:50:33 PM 41.6017 -76.4606 21° North 244 281 16,800 -900 Descending New York Center
Wed 01:51:33 PM 41.6789 -76.4172 23° Northeast 258 297 15,200 -1,537 Descending New York Center
Wed 01:52:34 PM 41.7517 -76.3733 24° Northeast 268 308 13,700 -1,500 Descending New York Center
Wed 01:53:33 PM 41.8200 -76.3344 23° Northeast 268 308 12,200 -1,462 Descending New York Center
Wed 01:54:33 PM 41.8822 -76.2950 25° Northeast 274 315 10,800 -1,450 Descending New York Center
Wed 01:55:33 PM 41.9572 -76.2539 22° Northeast 274 315 9,300 -1,537 Descending New York Center
Wed 01:56:34 PM 42.0342 -76.2072 24° Northeast 274 315 7,700 -1,500 Descending New York Center
Wed 01:57:33 PM 42.1025 -76.1711 21° North 274 315 6,300 -1,450 Descending New York Center
Wed 01:58:34 PM 42.1569 -76.1167 37° Northeast 251 289 4,800 -1,500 Descending New York Center
Wed 01:59:33 PM 42.2006 -76.0697 39° Northeast 223 257 3,300 -1,008 Descending New York Center
Wed 02:00:33 PM 42.2319 -76.0219 48° Northeast 194 223 2,800 -446 Descending New York Center
Wed 02:01:34 PM 42.2425 -75.9722 74° East 158 182 2,400 3,100 Descending New York Center
Wed 02:02:33 PM 42.2656 -75.9183 60° Northeast 158 182 9,000 3,328 Climbing New York Center
Wed 02:03:33 PM 42.2889 -75.8639 60° Northeast 158 182 9,000  Level New York Center
Wed 02:04:33 PM 42.3119 -75.8097 60° Northeast 158 182 9,000  Level New York Center
Wed 02:06:00 PM 42.2424 -75.8961 231° Southwest  Level FlightAware Approximate

Login

Don't have an account? Register now (free) for customized features, flight alerts, and more!